ADDS METAR Data INFO
IDs: Format: Raw Decoded Include TAF

Data at: 1715 UTC 23 Oct 2017

PANT 231653Z AUTO 11010G28KT 4SM +RA BR SCT017 OVC022 07/06 A2993 RMK AO2 PK WND 13031/1624 PRESFR SLP137 P0026 T00670061 TSNO
PANT 231553Z AUTO 12016G22KT 5SM +RA BR FEW011 BKN019 OVC025 08/07 A3002 RMK AO2 SLP166 P0019 T00780072 TSNO
PANT 231544Z AUTO 12013G21KT 5SM +RA BR SCT012 BKN016 OVC028 08/07 A3002 RMK AO2 PRESFR P0016 T00780072 TSNO
PANT 231528Z AUTO 14011G22KT 5SM +RA BR BKN011 OVC020 08/08 A3004 RMK AO2 P0011 T00830078 TSNO
PANT 231518Z AUTO 14015G24KT 5SM +RA BR FEW011 BKN017 OVC028 08/08 A3005 RMK AO2 P0007 T00830078 TSNO
PANT 231509Z AUTO 13017G23KT 6SM +RA BR FEW011 BKN014 OVC027 08/08 A3006 RMK AO2 P0004 T00830078 TSNO
PANT 231453Z AUTO 13014G18KT 6SM RA BR SCT011 BKN017 OVC035 08/08 A3007 RMK AO2 PK WND 15029/1354 RAB01 SLP183 P0006 60007 T00830083 58013 TSNO
PANT 231451Z AUTO 13012KT 7SM RA SCT011 BKN017 OVC035 08/08 A3007 RMK AO2 PK WND 15029/1354 RAB01 P0005 TSNO
PANT 231402Z AUTO 15017G29KT 10SM -RA FEW018 SCT024 OVC055 09/07 A3010 RMK AO2 PK WND 15029/1354 RAB01 P0000 T00940072 TSNO
PANT 231353Z AUTO 15019G26KT 10SM FEW018 BKN023 OVC080 10/08 A3011 RMK AO2 PK WND 17026/1353 RAB1258E30 SLP196 P0001 T01000078 TSNO
PANT 231351Z AUTO 14013G25KT 10SM FEW018 BKN023 OVC080 10/08 A3011 RMK AO2 RAB1258E30 P0001 TSNO
PANT 231322Z AUTO 14010G19KT 10SM -RA SCT013 BKN050 OVC070 10/08 A3012 RMK AO2 RAB1258 P0000 T01000083 TSNO
PANT 231301Z AUTO 15012KT 10SM -RA BKN012 BKN045 OVC100 10/09 A3013 RMK AO2 RAB1258 P0000 T01000089 TSNO
PANT 231253Z AUTO 14011KT 10SM SCT012 BKN046 OVC100 10/09 A3013 RMK AO2 SLP203 T01000089 TSNO
PANT 231224Z AUTO 13011G17KT 10SM BKN012 BKN049 BKN120 09/08 A3015 RMK AO2 T00940083 TSNO
PANT 231153Z AUTO 13007KT 10SM BKN047 BKN065 OVC120 09/08 A3016 RMK AO2 SLP214 60012 70030 T00940083 10094 20072 51007 TSNO
PANT 231053Z AUTO 12006KT 10SM CLR 09/08 A3016 RMK AO2 SLP214 T00890078 TSNO
PANT 230953Z AUTO VRB03KT 10SM FEW080 09/08 A3015 RMK AO2 SLP212 T00940078 TSNO
PANT 230853Z AUTO 18006KT 10SM FEW070 09/08 A3014 RMK AO2 SLP207 60012 T00940078 401220067 51027 TSNO
PANT 230753Z AUTO 18007KT 10SM FEW021 SCT065 09/08 A3011 RMK AO2 SLP198 T00890083 TSNO
PANT 230653Z AUTO 18005KT 10SM FEW014 SCT040 OVC055 08/08 A3009 RMK AO2 RAE50 SLP189 P0012 T00780078 TSNO
PANT 230644Z AUTO 20004KT 10SM -RA FEW010 BKN040 OVC049 08/07 A3008 RMK AO2 P0012 T00780072 TSNO
PANT 230635Z AUTO 18004KT 10SM -RA SCT015 BKN022 OVC047 08/07 A3008 RMK AO2 P0012 T00780072 TSNO
PANT 230608Z AUTO 20005KT 3SM +RA BR SCT013 OVC032 07/07 A3007 RMK AO2 P0011 T00720067 TSNO
PANT 230553Z AUTO 21006KT 4SM +RA BR BKN014 BKN020 OVC027 08/08 A3006 RMK AO2 RAB29 SLP179 P0010 60012 T00830083 10106 20078 51020 TSNO
PANT 230551Z AUTO VRB04KT 5SM +RA BR BKN014 BKN020 OVC027 08/08 A3006 RMK AO2 RAB29 P0007 TSNO
PANT 230542Z AUTO VRB06G15KT 5SM RA BR BKN016 BKN023 OVC038 09/08 A3005 RMK AO2 RAB29 P0005 T00890078 TSNO
PANT 230453Z AUTO 14006KT 10SM FEW028 SCT060 BKN090 08/07 A3003 RMK AO2 RAE12 SLP169 P0000 T00830072 TSNO
PANT 230353Z AUTO 17003KT 9SM -RA FEW037 OVC043 09/08 A3000 RMK AO2 RAB25 SLP159 P0002 T00890078 TSNO
PANT 230253Z AUTO 14006KT 10SM FEW110 08/07 A2997 RMK AO2 SLP148 T00830072 51045 TSNO
PANT 230153Z AUTO 18003KT 10SM FEW065 08/06 A2993 RMK AO2 SLP137 T00830061 TSNO
PANT 230053Z AUTO 22003KT 10SM CLR 09/06 A2989 RMK AO2 SLP122 T00940056 TSNO
PANT 222353Z AUTO 23007KT 10SM CLR 11/06 A2983 RMK AO2 SLP103 60000 T01060061 10122 20094 51051 TSNO
PANT 222253Z AUTO 24003KT 10SM BKN035 BKN044 OVC050 11/07 A2979 RMK AO2 SLP087 T01110072 TSNO
PANT 222153Z AUTO 23007KT 10SM SCT033 12/ A2973 RMK AO2 RAB23E34 SLP068 P0000 T0122 TSNO
PANT 222053Z AUTO 19006KT 10SM CLR 11/ A2968 RMK AO2 RAE02 SLP052 P0000 60000 T0106 51057 TSNO
PANT 222023Z AUTO 21007KT 190V250 10SM SCT028 BKN070 10/ A2966 RMK AO2 RAE02 P0000 T0100 TSNO
PANT 222016Z AUTO VRB06KT 10SM BKN028 BKN037 10/ A2965 RMK AO2 RAE02 P0000 T0100 TSNO
PANT 221953Z AUTO VRB05KT 10SM -RA FEW026 BKN035 OVC110 09/ A2963 RMK AO2 RAB53 PRESRR SLP035 P0000 T0094 TSNO $
PANT 221912Z AUTO 21006KT 10SM SCT028 BKN034 OVC120 10/07 A2960 RMK AO2 T01000067 TSNO
PANT 221853Z AUTO VRB05KT 10SM BKN029 OVC080 09/07 A2958 RMK AO2 SLP016 T00940067 TSNO
PANT 221843Z AUTO 22005KT 10SM BKN029 BKN065 OVC110 09/07 A2957 RMK AO2 T00940067 TSNO
PANT 221753Z AUTO VRB06KT 10SM FEW044 OVC065 09/07 A2952 RMK PRESRR SLP995 60006 T00940072 10094 20067 53054 TSNO VIA AUTODIAL
PANT 221653Z AUTO 19008G16KT 10SM FEW011 BKN030 OVC095 09/07 A2945 RMK AO2 RAE20 SLP974 P0001 T00890067 TSNO
PANT 221634Z AUTO 19008G16KT 10SM SCT014 BKN028 OVC090 09/07 A2944 RMK AO2 RAE20 P0001 T00890067 TSNO
PANT 221623Z AUTO 19008G15KT 10SM BKN014 OVC030 08/07 A2943 RMK AO2 RAE20 PRESRR P0001 T00830067 TSNO
PANT 221608Z AUTO 19008KT 170V230 10SM -RA SCT014 BKN019 OVC042 09/07 A2941 RMK AO2 P0000 T00890067 TSNO
PANT 221553Z AUTO 18009G16KT 130V200 10SM -RA FEW016 SCT037 OVC045 09/07 A2940 RMK AO2 RAB33 SLP956 P0001 T00890067 TSNO
PANT 221528Z AUTO 18008KT 10SM SCT029 BKN042 OVC060 09/06 A2938 RMK AO2 T00890061 TSNO
PANT 221453Z AUTO 17007KT 10SM OVC027 09/07 A2935 RMK AO2 RAE01B22E37 SLP941 P0000 60004 T00890067 52034 TSNO
PANT 221432Z AUTO 15009KT 10SM -RA OVC028 09/07 A2934 RMK AO2 RAE01B22 P0000 T00890067 TSNO
PANT 221404Z AUTO 14007KT 10SM FEW012 SCT017 OVC030 08/06 A2933 RMK AO2 RAE01 P0000 T00780061 TSNO
PANT 221353Z AUTO 13008KT 10SM -RA FEW011 BKN027 OVC036 08/06 A2932 RMK AO2 RAE1259B09 SLP930 P0003 T00780061 TSNO
PANT 221334Z AUTO 13010KT 10SM RA SCT010 BKN019 OVC038 07/06 A2931 RMK AO2 RAE1259B09 P0002 T00720056 TSNO
PANT 221308Z AUTO 12009G18KT 10SM BKN013 OVC018 07/05 A2930 RMK AO2 RAE1259 P0001 T00720050 TSNO
PANT 221253Z AUTO 12009KT 5SM -RA BR BKN015 OVC021 07/05 A2929 RMK AO2 SLP918 P0001 T00670050 TSNO
PANT 221153Z AUTO 12008KT 7SM -RA OVC021 07/05 A2925 RMK AO2 SLP907 P0004 60009 70044 T00670050 10083 20067 51018 TSNO
PANT 221138Z AUTO 12010KT 5SM -RA BR OVC027 07/04 A2925 RMK AO2 P0003 T00670044 TSNO
PANT 221115Z AUTO 12008KT 8SM -RA SCT023 OVC037 07/04 A2924 RMK AO2 P0002 T00720044 TSNO
PANT 221053Z AUTO 12010G17KT 10SM -RA BKN023 BKN028 OVC036 07/04 A2923 RMK AO2 RAB0958 SLP898 P0005 T00720044 TSNO
PANT 221051Z AUTO 11008KT 10SM -RA BKN023 BKN028 OVC036 07/04 A2923 RMK AO2 RAB0958 P0005 TSNO
PANT 221032Z AUTO 11008KT 9SM -RA SCT024 SCT029 OVC037 07/04 A2922 RMK AO2 RAB0958 P0003 T00720039 TSNO
PANT 220953Z AUTO 11010G17KT 10SM OVC020 08/03 A2920 RMK AO2 SLP889 T00780033 TSNO
PANT 220853Z AUTO 12010G16KT 10SM FEW019 OVC029 08/03 A2919 RMK AO2 SLP886 T00780033 400780050 51016 TSNO
PANT 220827Z AUTO 12010G16KT 10SM FEW021 OVC030 08/03 A2918 RMK AO2 T00780028 TSNO
PANT 220753Z AUTO 12013G18KT 10SM FEW019 BKN026 08/03 A2918 RMK AO2 SLP881 T00780028 TSNO
PANT 220653Z AUTO 12010KT 10SM BKN024 OVC029 08/03 A2916 RMK AO2 SLP876 T00780028 TSNO
PANT 220644Z AUTO 12009KT 10SM BKN025 OVC060 08/03 A2916 RMK AO2 T00780028 TSNO
PANT 220608Z AUTO 11008KT 10SM SCT023 BKN055 OVC070 08/03 A2914 RMK AO2 T00780028 TSNO
PANT 220553Z AUTO 12008KT 10SM BKN023 OVC060 08/03 A2914 RMK AO2 RAB19E33 SLP870 P0000 60000 T00780028 10078 20067 53011 TSNO
PANT 220517Z AUTO 12010KT 10SM BKN023 BKN037 OVC060 08/03 A2914 RMK AO2 T00780028 TSNO